createdAt,value
2018-06-27T00:00:12.408Z,14.10
2018-06-27T00:02:42.216Z,13.03
2018-06-27T00:05:11.880Z,12.90
2018-06-27T00:07:42.042Z,13.28
2018-06-27T00:10:11.367Z,10.63
2018-06-27T00:12:40.925Z,9.78
2018-06-27T00:15:10.760Z,13.53
2018-06-27T00:17:40.096Z,8.43
2018-06-27T00:20:09.872Z,10.25
2018-06-27T00:22:39.174Z,9.60
2018-06-27T00:25:08.459Z,10.33
2018-06-27T00:27:37.763Z,10.55
2018-06-27T00:30:07.571Z,10.45
2018-06-27T00:32:37.745Z,9.58
2018-06-27T00:35:07.385Z,9.60
2018-06-27T00:37:37.290Z,13.30
2018-06-27T00:40:08.445Z,12.85
2018-06-27T00:42:38.200Z,9.95
2018-06-27T00:45:08.544Z,7.95
2018-06-27T00:47:37.816Z,9.20
2018-06-27T00:50:07.923Z,10.85
2018-06-27T00:52:39.084Z,9.63
2018-06-27T00:55:08.365Z,11.50
2018-06-27T00:57:37.616Z,9.50
2018-06-27T01:00:08.601Z,11.00
2018-06-27T01:02:38.435Z,10.90
2018-06-27T01:05:08.081Z,11.10
2018-06-27T01:07:37.419Z,12.07
2018-06-27T01:10:06.773Z,10.13
2018-06-27T01:12:36.180Z,11.48
2018-06-27T01:15:06.435Z,10.98
2018-06-27T01:17:35.788Z,11.73
2018-06-27T01:20:05.941Z,13.78
2018-06-27T01:22:35.820Z,10.50
2018-06-27T01:25:05.388Z,10.08
2018-06-27T01:27:35.028Z,11.33
2018-06-27T01:30:04.837Z,10.27
2018-06-27T01:32:34.419Z,11.28
2018-06-27T01:35:04.555Z,14.83
2018-06-27T01:37:33.908Z,10.50
2018-06-27T01:40:02.863Z,9.80
2018-06-27T01:42:32.803Z,11.20
2018-06-27T01:45:02.516Z,9.55
2018-06-27T01:47:31.840Z,15.43
2018-06-27T01:50:01.097Z,13.35
2018-06-27T01:52:30.333Z,8.78
2018-06-27T01:54:59.736Z,9.57
2018-06-27T01:57:29.859Z,9.58
2018-06-27T01:59:59.167Z,11.18
2018-06-27T02:02:28.519Z,13.03
2018-06-27T02:04:57.829Z,12.35
2018-06-27T02:07:27.111Z,10.60
2018-06-27T02:09:56.752Z,11.15
2018-06-27T02:12:26.507Z,10.47
2018-06-27T02:14:55.810Z,10.98
2018-06-27T02:18:01.511Z,10.80
2018-06-27T02:20:30.871Z,9.33
2018-06-27T02:23:11.876Z,12.60
2018-06-27T02:25:41.599Z,11.77
2018-06-27T02:28:11.375Z,11.35
2018-06-27T02:30:40.712Z,11.95
2018-06-27T02:33:11.542Z,14.03
2018-06-27T02:35:40.768Z,14.20
2018-06-27T02:38:10.094Z,10.93
2018-06-27T02:40:39.305Z,11.22
2018-06-27T02:43:09.000Z,10.27
2018-06-27T02:45:39.365Z,11.90
2018-06-27T02:48:08.634Z,12.00
2018-06-27T02:50:37.890Z,12.78
2018-06-27T02:53:09.734Z,11.30
2018-06-27T02:55:38.990Z,12.33
2018-06-27T02:58:08.558Z,12.63
2018-06-27T03:00:37.800Z,13.83
2018-06-27T03:03:07.065Z,12.80
2018-06-27T03:05:36.288Z,12.28
2018-06-27T03:08:07.140Z,12.00
2018-06-27T03:10:36.353Z,11.80
2018-06-27T03:13:06.037Z,20.82
2018-06-27T03:15:35.305Z,16.05
2018-06-27T03:18:04.600Z,12.03
2018-06-27T03:20:33.947Z,13.22
2018-06-27T03:23:03.187Z,14.15
2018-06-27T03:25:32.474Z,15.80
2018-06-27T03:28:02.042Z,14.93
2018-06-27T03:30:31.460Z,14.90
2018-06-27T03:33:00.683Z,12.23
2018-06-27T03:35:30.361Z,10.70
2018-06-27T03:37:59.808Z,8.88
2018-06-27T03:40:29.761Z,12.30
2018-06-27T03:43:00.225Z,15.05
2018-06-27T03:45:29.541Z,14.75
2018-06-27T03:47:58.809Z,14.27
2018-06-27T03:50:28.542Z,13.38
2018-06-27T03:52:57.916Z,11.25
2018-06-27T03:55:27.149Z,12.88
2018-06-27T03:57:56.700Z,11.00
2018-06-27T04:00:25.928Z,14.70
2018-06-27T04:02:55.257Z,13.08
2018-06-27T04:05:24.792Z,13.20
2018-06-27T04:07:54.029Z,18.30
2018-06-27T04:10:23.203Z,20.08
2018-06-27T04:12:52.812Z,19.42
2018-06-27T04:15:22.017Z,15.20
2018-06-27T04:17:52.781Z,15.45
2018-06-27T04:20:22.432Z,12.83
2018-06-27T04:22:51.641Z,14.05
2018-06-27T04:25:21.541Z,10.13
2018-06-27T04:27:51.178Z,14.30
2018-06-27T04:30:20.753Z,9.80
2018-06-27T04:32:50.014Z,13.90
2018-06-27T04:35:19.381Z,16.10
2018-06-27T04:37:51.592Z,12.50
2018-06-27T04:40:21.122Z,11.60
2018-06-27T04:42:50.411Z,15.60
2018-06-27T04:45:22.050Z,16.05
2018-06-27T04:47:53.743Z,13.77
2018-06-27T04:50:24.253Z,16.42
2018-06-27T04:52:53.726Z,13.13
2018-06-27T04:55:23.095Z,10.68
2018-06-27T04:57:52.403Z,14.53
2018-06-27T05:00:21.667Z,9.95
2018-06-27T05:02:51.804Z,10.93
2018-06-27T05:05:21.319Z,16.37
2018-06-27T05:07:50.596Z,13.00
2018-06-27T05:10:19.909Z,11.53
2018-06-27T05:12:49.440Z,16.00
2018-06-27T05:15:18.983Z,20.20
2018-06-27T05:17:48.661Z,13.25
2018-06-27T05:20:18.669Z,14.07
2018-06-27T05:22:47.882Z,11.25
2018-06-27T05:25:18.905Z,10.48
2018-06-27T05:27:55.538Z,10.15
2018-06-27T05:30:34.814Z,10.87
2018-06-27T05:33:05.436Z,9.27
2018-06-27T05:35:38.490Z,12.80
2018-06-27T05:38:10.586Z,11.10
2018-06-27T05:40:40.068Z,10.50
2018-06-27T05:43:09.510Z,12.88
2018-06-27T05:45:40.408Z,12.15
2018-06-27T05:48:19.406Z,15.88
2018-06-27T05:50:48.709Z,13.90
2018-06-27T05:53:18.419Z,18.52
2018-06-27T05:55:47.673Z,11.97
2018-06-27T05:58:16.998Z,9.18
2018-06-27T06:00:47.761Z,10.05
2018-06-27T06:03:19.037Z,11.48
2018-06-27T06:05:48.239Z,11.10
2018-06-27T06:08:17.544Z,10.30
2018-06-27T06:10:48.708Z,15.63
2018-06-27T06:13:18.388Z,10.38
2018-06-27T06:15:48.925Z,9.08
2018-06-27T06:18:18.082Z,11.15
2018-06-27T06:20:47.690Z,10.35
2018-06-27T06:23:17.443Z,10.60
2018-06-27T06:25:46.811Z,10.17
2018-06-27T06:28:22.148Z,10.53
2018-06-27T06:30:51.697Z,8.90
2018-06-27T06:33:27.930Z,11.55
2018-06-27T06:35:57.265Z,13.60
2018-06-27T06:38:26.535Z,12.82
2018-06-27T06:40:56.399Z,10.40
2018-06-27T06:43:26.161Z,10.32
2018-06-27T06:45:59.920Z,11.45
2018-06-27T06:48:32.357Z,11.35
2018-06-27T06:51:15.006Z,11.78
2018-06-27T06:53:44.250Z,10.08
2018-06-27T06:56:15.295Z,8.68
2018-06-27T06:58:45.385Z,8.60
2018-06-27T07:01:15.945Z,9.75
2018-06-27T07:03:45.905Z,13.17
2018-06-27T07:06:15.513Z,8.38
2018-06-27T07:08:44.764Z,9.28
2018-06-27T07:11:14.228Z,9.23
2018-06-27T07:13:43.773Z,9.60
2018-06-27T07:16:13.107Z,10.05
2018-06-27T07:18:47.404Z,8.50
2018-06-27T07:21:17.446Z,10.55
2018-06-27T07:23:47.170Z,8.33
2018-06-27T07:26:16.697Z,11.53
2018-06-27T07:28:46.477Z,9.38
2018-06-27T07:31:15.874Z,10.27
2018-06-27T07:33:56.199Z,10.05
2018-06-27T07:36:25.837Z,12.30
2018-06-27T07:38:55.290Z,10.90
2018-06-27T07:41:38.766Z,9.30
2018-06-27T07:44:09.069Z,9.10
2018-06-27T07:46:38.727Z,76.92
2018-06-27T07:49:15.773Z,105.83
2018-06-27T09:15:52.867Z,1997.13
2018-06-27T09:18:22.520Z,2122.57
2018-06-27T09:20:52.138Z,1993.25
2018-06-27T09:23:39.689Z,1809.10
2018-06-27T09:26:09.530Z,787.52
2018-06-27T09:29:15.408Z,263.97
2018-06-27T09:31:45.758Z,1647.22
2018-06-27T09:40:29.507Z,22.23
2018-06-27T09:42:59.493Z,64.95
2018-06-27T09:45:29.020Z,837.63
2018-06-27T09:48:06.628Z,468.60
2018-06-27T09:50:35.938Z,35.00
2018-06-27T09:53:05.695Z,21.73
2018-06-27T09:55:35.664Z,42.93
2018-06-27T09:58:06.757Z,125.70
2018-06-27T10:00:41.097Z,8.00
2018-06-27T10:03:12.398Z,58.33
2018-06-27T10:05:42.085Z,7.10
2018-06-27T10:08:37.350Z,5.47
2018-06-27T10:11:50.121Z,5.37
2018-06-27T10:14:19.898Z,6.40
2018-06-27T10:16:49.339Z,4.42
2018-06-27T10:19:20.411Z,4.90
2018-06-27T10:21:53.094Z,7.22
2018-06-27T10:24:22.736Z,4.23
2018-06-27T10:26:52.322Z,4.53
2018-06-27T10:29:21.293Z,8.65
2018-06-27T10:31:51.414Z,5.90
2018-06-27T10:34:20.816Z,4.70
2018-06-27T10:36:50.174Z,4.10
2018-06-27T10:39:21.308Z,20.40
2018-06-27T10:41:50.620Z,4.50
2018-06-27T10:44:20.175Z,4.30
2018-06-27T10:46:51.124Z,4.30
2018-06-27T10:49:24.103Z,5.90
2018-06-27T10:51:54.386Z,3.05
2018-06-27T10:54:27.040Z,4.15
2018-06-27T10:59:57.868Z,4.60
2018-06-27T11:02:28.393Z,4.20
2018-06-27T11:04:58.910Z,7.87
2018-06-27T11:07:28.447Z,3.87
2018-06-27T11:10:43.977Z,5.55
2018-06-27T11:13:14.784Z,2.58
2018-06-27T11:15:44.062Z,3.70
2018-06-27T11:18:14.339Z,4.28
2018-06-27T11:20:47.976Z,7.57
2018-06-27T11:23:17.488Z,5.30
2018-06-27T11:26:17.778Z,136.37
2018-06-27T11:28:49.051Z,2.80
2018-06-27T11:31:20.865Z,39.67
2018-06-27T11:33:58.404Z,37.88
2018-06-27T11:36:29.309Z,48.83
2018-06-27T11:39:00.852Z,64.30
2018-06-27T11:41:32.415Z,52.40
2018-06-27T11:44:15.889Z,431.15
2018-06-27T11:46:47.763Z,113.17
2018-06-27T11:49:29.474Z,55.53
2018-06-27T11:52:00.629Z,22.42
2018-06-27T11:54:34.650Z,9.48
2018-06-27T11:57:03.619Z,7.33
2018-06-27T11:59:36.000Z,9.80
2018-06-27T12:02:32.658Z,6.35
2018-06-27T12:05:05.231Z,27.93
2018-06-27T12:08:17.313Z,31.55
2018-06-27T12:10:49.177Z,3.70
2018-06-27T12:14:09.465Z,3.08
2018-06-27T12:16:41.208Z,3.92
2018-06-27T12:19:14.075Z,4.40
2018-06-27T12:21:44.106Z,15.95
2018-06-27T12:24:51.736Z,1197.38
2018-06-27T12:27:25.280Z,21.02
2018-06-27T12:29:57.890Z,701.70
2018-06-27T12:32:27.959Z,464.32
2018-06-27T12:34:57.195Z,730.10
2018-06-27T12:37:27.916Z,258.02
2018-06-27T12:39:57.925Z,426.95
2018-06-27T12:42:27.495Z,101.40
2018-06-27T12:44:57.085Z,87.70
2018-06-27T12:47:26.737Z,307.67
2018-06-27T12:49:56.781Z,7.30
2018-06-27T12:52:26.084Z,9.38
2018-06-27T12:55:04.445Z,7.90
2018-06-27T12:57:37.901Z,8.40
2018-06-27T13:00:09.434Z,5.33
2018-06-27T13:02:40.157Z,4.80
2018-06-27T13:05:12.060Z,4.00
2018-06-27T13:07:43.835Z,4.22
2018-06-27T13:10:15.927Z,4.55
2018-06-27T13:12:45.893Z,2.70
2018-06-27T13:15:15.417Z,2.92
2018-06-27T13:17:46.306Z,4.87
2018-06-27T13:24:03.602Z,4.20
2018-06-27T13:26:38.389Z,662.33
2018-06-27T13:29:12.347Z,525.08
2018-06-27T13:31:50.201Z,46.40
2018-06-27T13:34:22.771Z,4.40
2018-06-27T13:37:12.084Z,4.60
2018-06-27T13:39:43.403Z,3.80
2018-06-27T13:42:31.508Z,4.35
2018-06-27T13:45:01.216Z,4.10
2018-06-27T13:47:33.147Z,4.65
2018-06-27T13:50:07.561Z,3.92
2018-06-27T13:52:37.777Z,3.80
2018-06-27T13:55:07.510Z,67.58
2018-06-27T13:57:38.060Z,4.20
2018-06-27T14:00:08.946Z,4.83
2018-06-27T14:02:43.427Z,4.22
2018-06-27T14:05:13.892Z,4.72
2018-06-27T14:07:43.486Z,4.05
2018-06-27T14:10:15.240Z,5.12
2018-06-27T14:12:48.963Z,3.00
2018-06-27T14:15:18.686Z,4.10
2018-06-27T14:17:49.022Z,5.20
2018-06-27T14:20:18.360Z,3.30
2018-06-27T14:22:48.277Z,3.90
2018-06-27T14:25:17.261Z,3.70
2018-06-27T14:27:50.541Z,5.40
2018-06-27T14:30:20.901Z,4.40
2018-06-27T14:32:53.270Z,4.10
2018-06-27T14:35:25.996Z,4.33
2018-06-27T14:38:06.070Z,3.22
2018-06-27T14:40:36.517Z,4.25
2018-06-27T14:43:09.361Z,4.33
2018-06-27T14:45:52.105Z,4.90
2018-06-27T14:48:27.015Z,5.20
2018-06-27T14:50:57.543Z,3.17
2018-06-27T14:56:33.862Z,4.00
2018-06-27T14:59:03.560Z,5.10
2018-06-27T15:01:41.081Z,2.70
2018-06-27T15:04:13.839Z,7.50
2018-06-27T15:06:43.289Z,2.90
2018-06-27T15:09:13.191Z,2.20
2018-06-27T15:11:44.921Z,4.47
2018-06-27T15:14:18.486Z,3.83
2018-06-27T15:16:48.591Z,6.35
2018-06-27T15:19:18.548Z,2.67
2018-06-27T15:21:47.851Z,2.95
2018-06-27T15:24:19.677Z,6.53
2018-06-27T15:26:50.342Z,5.00
2018-06-27T15:29:19.854Z,3.25
2018-06-27T15:31:49.353Z,5.33
2018-06-27T15:34:19.035Z,4.30
2018-06-27T15:36:48.923Z,3.77
2018-06-27T15:39:19.589Z,4.60
2018-06-27T15:41:49.366Z,3.35
2018-06-27T15:44:18.626Z,5.60
2018-06-27T15:46:48.105Z,6.58
2018-06-27T15:49:18.475Z,5.70
2018-06-27T15:51:48.048Z,3.22
2018-06-27T15:54:18.035Z,3.52
2018-06-27T15:56:49.439Z,4.42
2018-06-27T15:59:20.447Z,4.70
2018-06-27T16:01:51.882Z,3.35
2018-06-27T16:04:22.380Z,3.50
2018-06-27T16:06:52.114Z,3.50
2018-06-27T16:09:23.810Z,3.40
2018-06-27T16:12:15.562Z,4.80
2018-06-27T16:14:44.821Z,3.70
2018-06-27T16:17:19.039Z,4.53
2018-06-27T16:23:14.069Z,3.50
2018-06-27T16:25:42.865Z,4.10
2018-06-27T16:28:12.117Z,5.40
2018-06-27T16:30:43.911Z,6.30
2018-06-27T16:33:14.767Z,3.60
2018-06-27T16:35:44.424Z,3.22
2018-06-27T16:40:09.325Z,3.22
2018-06-27T16:42:44.206Z,4.10
2018-06-27T16:45:19.046Z,3.10
2018-06-27T16:47:49.422Z,4.93
2018-06-27T16:50:18.842Z,6.00
2018-06-27T16:52:48.222Z,3.60
2018-06-27T16:55:18.913Z,3.35
2018-06-27T16:57:49.553Z,3.17
2018-06-27T17:00:30.740Z,4.60
2018-06-27T17:03:01.447Z,3.02
2018-06-27T17:05:30.777Z,2.50
2018-06-27T17:08:00.055Z,3.60
2018-06-27T17:10:29.803Z,2.90
2018-06-27T17:13:01.889Z,4.20
2018-06-27T17:15:31.715Z,2.85
2018-06-27T17:18:04.520Z,3.30
2018-06-27T17:20:34.106Z,3.55
2018-06-27T17:23:04.069Z,3.65
2018-06-27T17:25:33.492Z,3.50
2018-06-27T17:33:41.155Z,2.70
2018-06-27T17:36:10.510Z,3.08
2018-06-27T17:38:43.987Z,3.70
2018-06-27T17:41:13.924Z,2.90
2018-06-27T17:43:44.325Z,2.30
2018-06-27T17:46:14.214Z,3.27
2018-06-27T17:48:44.188Z,4.62
2018-06-27T17:51:14.219Z,4.40
2018-06-27T17:53:43.926Z,2.20
2018-06-27T17:56:13.326Z,2.35
2018-06-27T17:58:42.877Z,3.98
2018-06-27T18:01:12.555Z,3.27
2018-06-27T18:03:42.153Z,3.10
2018-06-27T18:06:11.412Z,5.15
2018-06-27T18:08:40.944Z,3.50
2018-06-27T18:11:10.388Z,3.60
2018-06-27T18:13:39.763Z,5.47
2018-06-27T18:16:16.373Z,4.50
2018-06-27T18:18:50.524Z,2.70
2018-06-27T18:21:20.358Z,2.60
2018-06-27T18:23:49.756Z,4.78
2018-06-27T18:26:19.259Z,3.45
2018-06-27T18:28:50.759Z,4.60
2018-06-27T18:31:21.454Z,2.80
2018-06-27T18:33:50.899Z,2.60
2018-06-27T18:36:22.086Z,2.90
2018-06-27T18:38:54.552Z,4.30
2018-06-27T18:41:25.859Z,3.40
2018-06-27T18:43:57.076Z,4.40
2018-06-27T18:46:29.272Z,2.40
2018-06-27T18:48:59.381Z,4.70
2018-06-27T18:51:29.908Z,4.08
2018-06-27T18:53:59.227Z,2.60
2018-06-27T18:56:29.554Z,2.70
2018-06-27T18:59:00.310Z,3.50
2018-06-27T19:01:31.778Z,2.50
2018-06-27T19:04:01.521Z,4.35
2018-06-27T19:06:32.136Z,3.90
2018-06-27T19:09:05.084Z,5.25
2018-06-27T19:11:36.438Z,3.40
2018-06-27T19:14:07.261Z,3.45
2018-06-27T19:16:53.529Z,4.65
2018-06-27T19:19:23.674Z,6.72
2018-06-27T19:21:53.406Z,6.15
2018-06-27T19:24:25.819Z,5.95
2018-06-27T19:26:55.412Z,8.03
2018-06-27T19:29:26.707Z,8.00
2018-06-27T19:31:58.273Z,5.90
2018-06-27T19:34:28.918Z,6.37
2018-06-27T19:36:59.975Z,5.55
2018-06-27T19:39:37.463Z,7.08
2018-06-27T19:42:01.106Z,3.80
2018-06-27T19:44:33.971Z,3.20
2018-06-27T19:47:04.064Z,5.45
2018-06-27T19:49:34.987Z,3.00
2018-06-27T19:52:06.161Z,3.30
2018-06-27T19:54:36.434Z,3.40
2018-06-27T19:57:06.920Z,3.50
2018-06-27T19:59:37.517Z,3.50
2018-06-27T20:02:07.868Z,3.20
2018-06-27T20:04:39.090Z,4.45
2018-06-27T20:07:09.482Z,4.90
2018-06-27T20:09:39.547Z,4.60
2018-06-27T20:12:10.104Z,4.30
2018-06-27T20:14:39.653Z,5.00
2018-06-27T20:17:09.901Z,4.00
2018-06-27T20:19:42.155Z,3.02
2018-06-27T20:22:11.653Z,3.80
2018-06-27T20:24:41.604Z,3.10
2018-06-27T20:27:12.708Z,5.10
2018-06-27T20:29:42.393Z,3.33
2018-06-27T20:32:11.738Z,3.60
2018-06-27T20:34:41.772Z,3.17
2018-06-27T20:37:12.382Z,3.98
2018-06-27T20:39:42.640Z,3.20
2018-06-27T20:42:13.430Z,4.17
2018-06-27T20:44:45.622Z,4.08
2018-06-27T20:47:15.469Z,4.92
2018-06-27T20:49:46.434Z,2.95
2018-06-27T20:52:17.634Z,2.67
2018-06-27T20:54:47.588Z,4.67
2018-06-27T20:57:18.243Z,3.67
2018-06-27T20:59:48.035Z,4.90
2018-06-27T21:02:19.866Z,3.92
2018-06-27T21:04:51.194Z,3.87
2018-06-27T21:07:20.947Z,2.60
2018-06-27T21:09:50.217Z,2.98
2018-06-27T21:12:21.386Z,2.50
2018-06-27T21:14:50.873Z,5.12
2018-06-27T21:17:21.192Z,4.45
2018-06-27T21:19:50.666Z,2.90
2018-06-27T21:22:22.292Z,3.50
2018-06-27T21:24:52.190Z,2.90
2018-06-27T21:27:21.641Z,3.80
2018-06-27T21:29:52.614Z,2.90
2018-06-27T21:32:22.239Z,2.90
2018-06-27T21:34:51.552Z,3.17
2018-06-27T21:37:21.010Z,2.45
2018-06-27T21:39:50.602Z,2.40
2018-06-27T21:42:20.482Z,2.50
2018-06-27T21:44:49.723Z,3.47
2018-06-27T21:47:19.565Z,3.90
2018-06-27T21:49:48.786Z,2.60
2018-06-27T21:52:18.952Z,3.05
2018-06-27T21:54:48.711Z,2.90
2018-06-27T21:57:18.102Z,2.60
2018-06-27T21:59:47.549Z,2.60
2018-06-27T22:02:17.149Z,3.10
2018-06-27T22:04:46.491Z,3.10
2018-06-27T22:07:15.800Z,3.20
2018-06-27T22:09:45.474Z,2.67
2018-06-27T22:12:15.167Z,2.92
2018-06-27T22:14:44.426Z,2.52
2018-06-27T22:17:14.202Z,2.55
2018-06-27T22:19:43.401Z,2.70
2018-06-27T22:22:12.641Z,2.40
2018-06-27T22:24:45.703Z,2.40
2018-06-27T22:27:15.205Z,2.58
2018-06-27T22:29:45.738Z,4.50
2018-06-27T22:32:21.565Z,5.20
2018-06-27T22:34:51.238Z,2.58
2018-06-27T22:37:21.650Z,2.50
2018-06-27T22:39:53.043Z,2.70
2018-06-27T22:42:31.637Z,2.80
2018-06-27T22:45:01.241Z,4.00
2018-06-27T22:47:30.485Z,2.75
2018-06-27T22:49:59.702Z,3.20
2018-06-27T22:52:29.379Z,6.22
2018-06-27T22:54:58.581Z,3.35
2018-06-27T22:57:27.867Z,5.42
2018-06-27T22:59:57.353Z,4.65
2018-06-27T23:02:26.557Z,4.25
2018-06-27T23:04:56.052Z,4.80
2018-06-27T23:07:25.986Z,4.00
2018-06-27T23:09:55.466Z,3.80
2018-06-27T23:12:24.882Z,2.70
2018-06-27T23:14:54.530Z,2.80
2018-06-27T23:17:23.769Z,3.70
2018-06-27T23:19:53.405Z,3.40
2018-06-27T23:22:33.973Z,5.12
2018-06-27T23:25:03.774Z,3.22
2018-06-27T23:27:33.464Z,3.40
2018-06-27T23:30:02.686Z,3.10
2018-06-27T23:32:31.892Z,4.10
2018-06-27T23:35:01.244Z,4.95
2018-06-27T23:37:30.470Z,3.42
2018-06-27T23:39:59.991Z,3.98
2018-06-27T23:42:29.701Z,2.90
2018-06-27T23:44:58.926Z,2.67
2018-06-27T23:47:28.174Z,2.87
2018-06-27T23:49:57.510Z,3.00
2018-06-27T23:52:26.855Z,3.47
2018-06-27T23:54:56.073Z,3.50
2018-06-27T23:57:25.549Z,5.60
2018-06-27T23:59:55.254Z,2.90
